Time;durP1;ratioP1;P1;durP2;ratioP2;P2;SDS_P1;SDS_P2;PMS_P1;PMS_P2;Temp;Humidity;BMP_temperature;BMP_pressure;BME280_temperature;BME280_humidity;BME280_pressure;Samples;Min_cycle;Max_cycle;Signal;HPM_P1;HPM_P2
2022/07/22 00:02:08;;;;;;;3.00;0.75;;;12.20;99.90;;;;;;5053104;28;20045;-69
2022/07/22 00:04:36;;;;;;;5.13;1.10;;;12.20;99.90;;;;;;5053421;28;20075;-70
2022/07/22 00:07:03;;;;;;;2.80;0.85;;;12.30;99.90;;;;;;5053142;28;20040;-70
2022/07/22 00:09:31;;;;;;;3.08;1.10;;;12.30;99.90;;;;;;5053112;28;20159;-70
2022/07/22 00:11:58;;;;;;;3.25;1.33;;;12.40;99.90;;;;;;5053263;28;20044;-69
2022/07/22 00:14:25;;;;;;;3.05;1.20;;;12.40;99.90;;;;;;5053372;28;20029;-69
2022/07/22 00:16:52;;;;;;;7.80;1.90;;;12.40;99.90;;;;;;5053259;28;20021;-69
2022/07/22 00:19:20;;;;;;;4.72;1.27;;;12.50;99.90;;;;;;5053196;28;20537;-69
2022/07/22 00:21:47;;;;;;;6.22;1.13;;;12.50;99.90;;;;;;5053219;28;20033;-69
2022/07/22 00:24:14;;;;;;;5.50;1.33;;;12.50;99.90;;;;;;5053177;28;20021;-69
2022/07/22 00:26:42;;;;;;;7.25;1.08;;;12.60;99.90;;;;;;5053171;28;20090;-70
2022/07/22 00:29:09;;;;;;;8.40;1.00;;;12.60;99.90;;;;;;5053465;28;20025;-69
2022/07/22 00:31:37;;;;;;;8.38;1.20;;;12.70;99.90;;;;;;5057074;28;20021;-69
2022/07/22 00:34:05;;;;;;;3.38;0.98;;;12.80;99.90;;;;;;5055779;28;20424;-69
2022/07/22 00:36:33;;;;;;;5.13;1.13;;;12.80;99.90;;;;;;5057221;28;20025;-69
2022/07/22 00:39:00;;;;;;;3.42;1.00;;;12.80;99.90;;;;;;5057216;28;20036;-69
2022/07/22 00:41:27;;;;;;;6.22;1.13;;;12.80;99.90;;;;;;5057121;28;20032;-69
2022/07/22 00:44:06;;;;;;;4.38;0.93;;;12.90;99.90;;;;;;5057087;28;20377;-70
2022/07/22 00:46:36;;;;;;;4.68;1.05;;;13.00;99.90;;;;;;5057044;28;20385;-70
2022/07/22 00:49:05;;;;;;;8.40;1.10;;;13.10;99.90;;;;;;5056725;28;20108;-70
2022/07/22 00:51:33;;;;;;;8.18;1.65;;;13.10;99.90;;;;;;5057037;28;20032;-69
2022/07/22 00:54:01;;;;;;;4.53;1.08;;;13.20;99.90;;;;;;5056616;28;20032;-69
2022/07/22 00:56:30;;;;;;;6.43;1.08;;;13.20;99.90;;;;;;5056955;28;20013;-70
2022/07/22 00:59:01;;;;;;;3.42;1.23;;;13.30;99.90;;;;;;5056730;28;20029;-69
2022/07/22 01:01:28;;;;;;;3.92;1.20;;;13.40;99.90;;;;;;5056731;28;20017;-69
2022/07/22 01:03:56;;;;;;;7.00;1.63;;;13.40;99.90;;;;;;5056727;28;20040;-70
2022/07/22 01:06:23;;;;;;;6.07;1.20;;;13.40;99.90;;;;;;5056514;28;20021;-69
2022/07/22 01:08:51;;;;;;;6.55;1.15;;;13.40;99.90;;;;;;5056672;28;20040;-70
2022/07/22 01:11:20;;;;;;;5.88;1.65;;;13.40;99.90;;;;;;5056471;28;20070;-69
2022/07/22 01:13:49;;;;;;;7.45;0.90;;;13.40;99.90;;;;;;5056514;28;20107;-69
2022/07/22 01:16:18;;;;;;;4.82;1.13;;;13.50;99.90;;;;;;5056418;28;20017;-69
2022/07/22 01:18:46;;;;;;;5.53;0.88;;;13.60;99.90;;;;;;5056346;28;20040;-69
2022/07/22 01:21:15;;;;;;;4.35;1.02;;;13.60;99.90;;;;;;5056510;28;20032;-70
2022/07/22 01:23:44;;;;;;;4.25;1.00;;;13.60;99.90;;;;;;5056201;28;20046;-69
2022/07/22 01:26:11;;;;;;;10.40;1.25;;;13.50;99.90;;;;;;5056381;28;20021;-71
2022/07/22 01:28:38;;;;;;;8.10;1.02;;;13.50;99.90;;;;;;5055990;28;20090;-72
2022/07/22 01:31:06;;;;;;;5.90;1.38;;;13.50;99.90;;;;;;5055934;28;20032;-71
2022/07/22 01:33:34;;;;;;;4.93;0.65;;;13.60;99.90;;;;;;5055945;28;20112;-71
2022/07/22 01:36:05;;;;;;;6.25;1.20;;;13.80;99.90;;;;;;5055934;28;20104;-71
2022/07/22 01:38:33;;;;;;;2.90;0.68;;;14.00;99.90;;;;;;5055995;28;20141;-70
2022/07/22 01:41:00;;;;;;;6.30;0.60;;;14.00;99.90;;;;;;5055158;28;20056;-70
2022/07/22 01:43:28;;;;;;;10.32;1.48;;;14.10;99.90;;;;;;5055912;28;20569;-71
2022/07/22 01:45:55;;;;;;;5.05;0.93;;;14.10;99.90;;;;;;5055842;28;20036;-71
2022/07/22 01:48:24;;;;;;;7.30;1.52;;;14.10;99.90;;;;;;5055698;28;20033;-70
2022/07/22 01:50:52;;;;;;;10.75;1.67;;;14.20;99.90;;;;;;5055800;28;20017;-71
2022/07/22 01:53:19;;;;;;;6.60;0.85;;;14.20;99.90;;;;;;5055444;28;20021;-71
2022/07/22 01:55:47;;;;;;;5.50;0.82;;;14.20;99.90;;;;;;5055533;28;20103;-70
2022/07/22 01:58:14;;;;;;;4.88;1.02;;;14.30;99.90;;;;;;5055519;28;20021;-72
2022/07/22 02:00:42;;;;;;;7.43;1.67;;;14.30;99.90;;;;;;5055770;28;20044;-71
2022/07/22 02:03:10;;;;;;;5.85;1.17;;;14.40;99.90;;;;;;5055113;28;20048;-70
2022/07/22 02:05:39;;;;;;;6.38;1.33;;;14.40;99.90;;;;;;5055325;28;20445;-70
2022/07/22 02:08:08;;;;;;;3.80;1.40;;;14.40;99.90;;;;;;5055328;28;20482;-71
2022/07/22 02:10:36;;;;;;;4.68;1.02;;;14.30;99.90;;;;;;5055279;28;20083;-70
2022/07/22 02:13:04;;;;;;;3.92;1.00;;;14.20;99.90;;;;;;5055184;28;20082;-71
2022/07/22 02:15:32;;;;;;;6.85;0.77;;;14.20;99.90;;;;;;5055424;28;20021;-72
2022/07/22 02:17:59;;;;;;;5.35;1.17;;;14.10;99.90;;;;;;5055401;28;20060;-72
2022/07/22 02:20:27;;;;;;;6.55;1.60;;;14.10;99.90;;;;;;5055091;28;20488;-71
2022/07/22 02:22:54;;;;;;;7.15;1.02;;;14.10;99.90;;;;;;5055142;28;20109;-72
2022/07/22 02:25:22;;;;;;;8.73;1.08;;;14.20;99.90;;;;;;5053986;28;20401;-71
2022/07/22 02:27:49;;;;;;;8.15;1.20;;;14.30;99.90;;;;;;5053930;28;20024;-71
2022/07/22 02:30:16;;;;;;;4.47;1.27;;;14.30;99.90;;;;;;5054908;28;20390;-71
2022/07/22 02:32:43;;;;;;;5.57;1.45;;;14.40;99.90;;;;;;5055097;28;20051;-71
2022/07/22 02:35:11;;;;;;;4.68;1.85;;;14.40;99.90;;;;;;5054784;28;20021;-72
2022/07/22 02:37:38;;;;;;;3.53;0.80;;;14.50;99.90;;;;;;5054846;28;20025;-72
2022/07/22 02:40:10;;;;;;;6.10;0.75;;;14.40;99.90;;;;;;5054758;28;20024;-71
2022/07/22 02:42:37;;;;;;;3.40;1.02;;;14.40;99.90;;;;;;5054896;28;20370;-73
2022/07/22 02:45:05;;;;;;;2.00;0.73;;;14.40;99.90;;;;;;5053704;28;20025;-71
2022/07/22 02:47:32;;;;;;;1.40;0.40;;;14.40;99.90;;;;;;5054520;28;20029;-71
2022/07/22 02:49:59;;;;;;;3.58;0.95;;;14.40;99.90;;;;;;5054506;28;20028;-72
2022/07/22 02:52:27;;;;;;;3.53;0.45;;;14.30;99.90;;;;;;5054182;28;20013;-72
2022/07/22 02:54:54;;;;;;;1.23;0.38;;;14.30;99.90;;;;;;5053768;28;20025;-73
2022/07/22 02:57:21;;;;;;;2.10;0.75;;;14.30;99.90;;;;;;5054606;28;20028;-73
2022/07/22 02:59:49;;;;;;;2.80;0.57;;;14.30;99.90;;;;;;5054362;28;20087;-72
2022/07/22 03:02:16;;;;;;;6.97;0.60;;;14.30;99.90;;;;;;5054073;28;20562;-73
2022/07/22 03:04:43;;;;;;;1.60;0.75;;;14.30;99.90;;;;;;5054454;28;20119;-72
2022/07/22 03:07:10;;;;;;;4.20;0.90;;;14.20;99.90;;;;;;5054146;28;20095;-72
2022/07/22 03:09:38;;;;;;;3.78;0.70;;;14.20;99.90;;;;;;5054145;28;20044;-71
2022/07/22 03:12:05;;;;;;;0.80;0.43;;;14.00;99.90;;;;;;5054086;28;20051;-72
2022/07/22 03:14:32;;;;;;;4.20;0.75;;;13.90;99.90;;;;;;5053891;28;20021;-72
2022/07/22 03:17:00;;;;;;;1.90;0.40;;;13.70;99.90;;;;;;5054093;28;20103;-71
2022/07/22 03:19:27;;;;;;;5.45;0.63;;;13.60;99.90;;;;;;5053941;28;20485;-72
2022/07/22 03:21:54;;;;;;;4.30;1.00;;;13.60;99.90;;;;;;5054051;28;20025;-72
2022/07/22 03:24:22;;;;;;;4.50;0.85;;;13.60;99.90;;;;;;5054107;28;20025;-73
2022/07/22 03:26:49;;;;;;;3.38;0.88;;;13.60;99.90;;;;;;5054015;28;20021;-72
2022/07/22 03:29:16;;;;;;;1.25;0.65;;;13.60;99.90;;;;;;5053878;28;20029;-72
2022/07/22 03:31:43;;;;;;;7.05;0.85;;;13.60;99.90;;;;;;5053880;28;20017;-71
2022/07/22 03:34:11;;;;;;;1.25;0.60;;;13.60;99.90;;;;;;5053728;28;20080;-71
2022/07/22 03:36:38;;;;;;;4.07;0.90;;;13.60;99.90;;;;;;5053815;28;20032;-72
2022/07/22 03:39:08;;;;;;;2.00;0.63;;;13.60;99.90;;;;;;5053685;28;20021;-72
2022/07/22 03:41:36;;;;;;;4.47;0.50;;;13.60;99.90;;;;;;5053858;28;20017;-72
2022/07/22 03:44:03;;;;;;;3.13;0.60;;;13.70;99.90;;;;;;5053720;28;20108;-73
2022/07/22 03:46:30;;;;;;;2.22;0.68;;;13.60;99.90;;;;;;5053566;28;20021;-72
2022/07/22 03:48:57;;;;;;;0.85;0.30;;;13.70;99.90;;;;;;5053515;28;20029;-73
2022/07/22 03:51:25;;;;;;;1.55;0.50;;;13.70;99.90;;;;;;5053694;28;20017;-72
2022/07/22 03:53:52;;;;;;;4.65;0.80;;;13.70;99.90;;;;;;5053365;28;20389;-72
2022/07/22 03:56:19;;;;;;;1.45;0.82;;;13.70;99.90;;;;;;5053539;28;20044;-72
2022/07/22 03:58:47;;;;;;;7.47;1.40;;;13.70;99.90;;;;;;5053231;28;20032;-72
2022/07/22 04:01:14;;;;;;;10.60;1.70;;;13.70;99.90;;;;;;5053623;28;20029;-73
2022/07/22 04:03:41;;;;;;;4.45;0.98;;;13.80;99.90;;;;;;5053392;28;20045;-73
2022/07/22 04:06:08;;;;;;;1.45;0.60;;;13.90;99.90;;;;;;5053272;28;20029;-72
2022/07/22 04:08:36;;;;;;;4.65;0.82;;;13.90;99.90;;;;;;5053273;28;20035;-72
2022/07/22 04:11:04;;;;;;;4.18;1.40;;;14.00;99.90;;;;;;5053261;28;20025;-72
2022/07/22 04:13:31;;;;;;;4.53;1.05;;;14.00;99.90;;;;;;5053361;28;20033;-71
2022/07/22 04:15:58;;;;;;;8.45;0.80;;;14.00;99.90;;;;;;5053176;28;20025;-72
2022/07/22 04:18:26;;;;;;;4.05;1.02;;;14.00;99.90;;;;;;5053385;28;20462;-72
2022/07/22 04:20:53;;;;;;;5.47;0.82;;;14.00;99.90;;;;;;5053344;28;20036;-72
2022/07/22 04:23:20;;;;;;;3.53;1.00;;;14.00;99.90;;;;;;5052958;28;20044;-72
2022/07/22 04:25:48;;;;;;;7.90;1.92;;;13.90;99.90;;;;;;5053131;28;20029;-73
2022/07/22 04:28:15;;;;;;;5.75;1.42;;;13.90;99.90;;;;;;5053167;28;20489;-72
2022/07/22 04:30:42;;;;;;;4.53;0.98;;;13.80;99.90;;;;;;5053017;28;20477;-73
2022/07/22 04:33:10;;;;;;;3.47;0.93;;;13.80;99.90;;;;;;5053059;28;20036;-72
2022/07/22 04:35:37;;;;;;;2.10;0.50;;;13.80;99.90;;;;;;5053291;28;20044;-73
2022/07/22 04:38:04;;;;;;;0.98;0.40;;;13.80;99.90;;;;;;5053017;28;20021;-72
2022/07/22 04:40:32;;;;;;;7.70;0.55;;;13.80;99.90;;;;;;5053017;28;20033;-72
2022/07/22 04:42:59;;;;;;;3.67;0.80;;;13.80;99.90;;;;;;5053042;28;20021;-73
2022/07/22 04:45:26;;;;;;;1.73;0.40;;;13.80;99.90;;;;;;5052957;28;20021;-72
2022/07/22 04:47:53;;;;;;;4.18;0.57;;;13.80;99.90;;;;;;5053038;28;20029;-73
2022/07/22 04:50:21;;;;;;;2.95;1.15;;;13.80;99.90;;;;;;5052846;28;20108;-72
2022/07/22 04:52:51;;;;;;;4.68;0.80;;;13.80;99.90;;;;;;5053001;28;20036;-73
2022/07/22 04:55:18;;;;;;;3.72;1.02;;;13.80;99.90;;;;;;5053178;28;20100;-73
2022/07/22 04:57:46;;;;;;;6.03;0.85;;;13.90;99.90;;;;;;5053024;28;20500;-73
2022/07/22 05:00:15;;;;;;;3.90;0.63;;;13.90;99.90;;;;;;5052442;28;20094;-73
2022/07/22 05:02:43;;;;;;;12.85;1.33;;;13.90;99.90;;;;;;5052502;28;20136;-73
2022/07/22 05:05:10;;;;;;;5.00;1.02;;;13.90;99.90;;;;;;5052691;28;20028;-72
2022/07/22 05:07:37;;;;;;;9.98;1.42;;;13.80;99.90;;;;;;5052537;28;20043;-72
2022/07/22 05:10:08;;;;;;;4.40;1.20;;;13.80;99.90;;;;;;5052605;28;20013;-73
2022/07/22 05:12:36;;;;;;;9.88;1.58;;;13.80;99.90;;;;;;5052696;28;20033;-73
2022/07/22 05:15:04;;;;;;;8.32;0.95;;;13.70;99.90;;;;;;5052416;28;20025;-73
2022/07/22 05:17:31;;;;;;;7.47;1.35;;;13.60;99.90;;;;;;5054858;28;20056;-72
2022/07/22 05:19:59;;;;;;;9.15;1.35;;;13.60;99.90;;;;;;5056309;28;20470;-73
2022/07/22 05:22:26;;;;;;;5.82;1.55;;;13.60;99.90;;;;;;5056269;28;20025;-73
2022/07/22 05:24:53;;;;;;;6.15;1.10;;;13.50;99.90;;;;;;5056282;28;20476;-73
2022/07/22 05:27:20;;;;;;;13.43;1.98;;;13.50;99.90;;;;;;5056260;28;20113;-71
2022/07/22 05:29:48;;;;;;;7.45;1.35;;;13.50;99.90;;;;;;5056059;28;20478;-71
2022/07/22 05:32:15;;;;;;;10.13;2.35;;;13.40;99.90;;;;;;5054833;28;20458;-72
2022/07/22 05:34:43;;;;;;;5.55;0.80;;;13.40;99.90;;;;;;5056050;28;20096;-71
2022/07/22 05:37:10;;;;;;;7.88;1.48;;;13.20;99.90;;;;;;5056069;28;20028;-70
2022/07/22 05:39:37;;;;;;;4.90;1.02;;;13.00;99.90;;;;;;5055830;28;20021;-69
2022/07/22 05:42:05;;;;;;;3.42;0.93;;;12.90;99.90;;;;;;5056093;28;20031;-69
2022/07/22 05:44:32;;;;;;;6.10;1.15;;;12.90;99.90;;;;;;5055702;28;20053;-70
2022/07/22 05:47:02;;;;;;;6.88;0.70;;;12.80;99.90;;;;;;5055673;28;20381;-69
2022/07/22 05:49:29;;;;;;;3.50;0.85;;;12.90;99.90;;;;;;5055721;28;20043;-70
2022/07/22 05:52:00;;;;;;;3.22;0.65;;;12.80;99.90;;;;;;5055610;28;20033;-69
2022/07/22 05:54:28;;;;;;;2.05;0.98;;;12.80;99.90;;;;;;5055518;28;20025;-70
2022/07/22 05:56:56;;;;;;;10.82;1.05;;;12.80;99.90;;;;;;5055766;28;20032;-69
2022/07/22 05:59:23;;;;;;;7.30;1.83;;;12.80;99.90;;;;;;5055763;28;20076;-69
2022/07/22 06:01:50;;;;;;;10.85;1.77;;;12.80;99.90;;;;;;5055555;28;20033;-70
2022/07/22 06:04:18;;;;;;;11.13;1.00;;;12.80;99.90;;;;;;5055583;28;20083;-70
2022/07/22 06:06:45;;;;;;;7.60;1.42;;;12.80;99.90;;;;;;5055353;28;20025;-70
2022/07/22 06:09:12;;;;;;;6.13;1.58;;;12.80;99.90;;;;;;5054109;28;20075;-70
2022/07/22 06:11:39;;;;;;;8.20;1.60;;;12.80;99.90;;;;;;5055245;28;20021;-70
2022/07/22 06:14:07;;;;;;;7.15;1.27;;;12.70;99.90;;;;;;5055112;28;20104;-70
2022/07/22 06:16:35;;;;;;;6.28;1.27;;;12.70;99.90;;;;;;5055322;28;20029;-70
2022/07/22 06:19:03;;;;;;;8.75;1.42;;;12.70;99.90;;;;;;5055115;28;20536;-69
2022/07/22 06:21:30;;;;;;;3.78;1.52;;;12.70;99.90;;;;;;5055151;28;20091;-70
2022/07/22 06:23:57;;;;;;;3.25;1.58;;;12.70;99.90;;;;;;5055184;28;20029;-70
2022/07/22 06:26:25;;;;;;;8.05;2.00;;;12.60;99.90;;;;;;5055073;28;20020;-70
2022/07/22 06:28:52;;;;;;;5.30;2.10;;;12.60;99.90;;;;;;5054915;28;20094;-69
2022/07/22 06:31:19;;;;;;;5.72;1.65;;;12.60;99.90;;;;;;5055136;28;20021;-69
2022/07/22 06:33:47;;;;;;;8.90;1.70;;;12.60;99.90;;;;;;5055059;28;20028;-69
2022/07/22 06:36:14;;;;;;;7.30;1.48;;;12.60;99.90;;;;;;5054990;28;20021;-69
2022/07/22 06:38:42;;;;;;;5.68;1.42;;;12.60;99.90;;;;;;5054925;28;20078;-69
2022/07/22 06:41:10;;;;;;;5.22;1.63;;;12.50;99.90;;;;;;5054767;28;20429;-69
2022/07/22 06:43:37;;;;;;;8.88;1.38;;;12.50;99.90;;;;;;5053483;28;20351;-69
2022/07/22 06:46:05;;;;;;;7.32;1.85;;;12.50;99.90;;;;;;5054686;28;20029;-69
2022/07/22 06:48:32;;;;;;;6.55;2.35;;;12.50;99.90;;;;;;5054370;28;20047;-69
2022/07/22 06:50:59;;;;;;;10.98;2.10;;;12.50;99.90;;;;;;5054462;28;20021;-70
2022/07/22 06:53:26;;;;;;;9.38;1.70;;;12.50;99.90;;;;;;5054388;28;20025;-70
2022/07/22 06:55:54;;;;;;;4.07;1.08;;;12.50;99.90;;;;;;5054467;28;20492;-69
2022/07/22 06:58:21;;;;;;;6.82;1.58;;;12.50;99.90;;;;;;5054474;28;20486;-70
2022/07/22 07:00:49;;;;;;;13.82;2.13;;;12.40;99.90;;;;;;5054484;28;20025;-69
2022/07/22 07:03:16;;;;;;;11.23;1.67;;;12.40;99.90;;;;;;5054177;28;20081;-70
2022/07/22 07:05:43;;;;;;;9.75;2.15;;;12.40;99.90;;;;;;5054229;28;20025;-71
2022/07/22 07:08:11;;;;;;;10.52;1.65;;;12.40;99.90;;;;;;5054077;28;20072;-70
2022/07/22 07:10:38;;;;;;;5.82;1.80;;;12.40;99.90;;;;;;5054228;28;20028;-70
2022/07/22 07:13:05;;;;;;;14.10;1.95;;;12.40;99.90;;;;;;5054218;28;20021;-70
2022/07/22 07:15:33;;;;;;;3.20;1.95;;;12.40;99.90;;;;;;5054140;28;20021;-70
2022/07/22 07:18:00;;;;;;;6.20;1.75;;;12.40;99.90;;;;;;5054259;28;20359;-69
2022/07/22 07:20:27;;;;;;;11.95;2.55;;;12.40;99.90;;;;;;5053872;28;20017;-70
2022/07/22 07:22:55;;;;;;;6.45;1.98;;;12.30;99.90;;;;;;5053842;28;20096;-70
2022/07/22 07:25:22;;;;;;;5.13;1.60;;;12.30;99.90;;;;;;5054012;28;20025;-70
2022/07/22 07:27:50;;;;;;;18.27;2.03;;;12.30;99.90;;;;;;5053847;28;20036;-70
2022/07/22 07:30:17;;;;;;;4.78;1.60;;;12.20;99.90;;;;;;5053999;28;20100;-70
2022/07/22 07:32:45;;;;;;;6.40;1.95;;;12.20;99.90;;;;;;5053752;28;20079;-71
2022/07/22 07:35:12;;;;;;;13.52;2.22;;;12.20;99.90;;;;;;5053525;28;20470;-70
2022/07/22 07:37:39;;;;;;;6.90;2.60;;;12.10;99.90;;;;;;5053828;28;20044;-70
2022/07/22 07:40:07;;;;;;;4.65;1.45;;;12.10;99.90;;;;;;5053145;28;20151;-70
2022/07/22 07:42:34;;;;;;;11.60;2.17;;;12.10;99.90;;;;;;5053879;28;20021;-71
2022/07/22 07:45:02;;;;;;;10.65;1.70;;;12.10;99.90;;;;;;5053843;28;20090;-70
2022/07/22 07:47:30;;;;;;;10.20;1.92;;;12.10;99.90;;;;;;5053580;28;20478;-70
2022/07/22 07:50:00;;;;;;;5.97;1.80;;;12.00;99.90;;;;;;5053589;28;20033;-71
2022/07/22 07:52:27;;;;;;;5.60;1.85;;;12.00;99.90;;;;;;5053559;28;20104;-72
2022/07/22 07:54:55;;;;;;;6.70;1.50;;;12.00;99.90;;;;;;5053492;28;20219;-70
2022/07/22 07:57:22;;;;;;;9.32;2.03;;;12.00;99.90;;;;;;5053589;28;20222;-71
2022/07/22 07:59:50;;;;;;;5.70;1.50;;;12.00;99.90;;;;;;5053335;28;20025;-72
2022/07/22 08:02:17;;;;;;;9.50;2.10;;;12.00;99.90;;;;;;5053251;28;20486;-71
2022/07/22 08:04:44;;;;;;;3.58;1.85;;;12.00;99.90;;;;;;5053607;28;20029;-71
2022/07/22 08:07:12;;;;;;;10.38;2.42;;;12.00;99.90;;;;;;5053363;28;20033;-70
2022/07/22 08:09:39;;;;;;;7.75;1.98;;;11.90;99.90;;;;;;5053307;28;20017;-70
2022/07/22 08:12:07;;;;;;;9.40;2.40;;;11.90;99.90;;;;;;5053424;28;20087;-68
2022/07/22 08:14:34;;;;;;;5.47;2.10;;;11.90;99.90;;;;;;5053235;28;20021;-69
2022/07/22 08:17:02;;;;;;;7.35;2.25;;;11.90;99.90;;;;;;5053230;28;20104;-70
2022/07/22 08:19:29;;;;;;;9.32;3.30;;;11.90;99.90;;;;;;5053180;28;20151;-69
2022/07/22 08:21:57;;;;;;;6.88;2.75;;;11.90;99.90;;;;;;5053300;28;20025;-69
2022/07/22 08:24:24;;;;;;;7.38;2.42;;;11.80;99.90;;;;;;5053017;28;20025;-69
2022/07/22 08:26:52;;;;;;;9.88;3.17;;;11.80;99.90;;;;;;5051720;28;20082;-69
2022/07/22 08:29:19;;;;;;;4.10;2.13;;;11.80;99.90;;;;;;5053688;28;20478;-71
2022/07/22 08:31:46;;;;;;;9.40;3.42;;;11.80;99.90;;;;;;5053007;28;20058;-70
2022/07/22 08:34:14;;;;;;;17.80;4.22;;;11.80;99.90;;;;;;5051827;28;20036;-69
2022/07/22 08:36:41;;;;;;;10.43;3.80;;;11.90;99.90;;;;;;5053026;28;20469;-71
2022/07/22 08:39:08;;;;;;;6.45;3.40;;;11.90;99.90;;;;;;5052921;28;20036;-69
2022/07/22 08:41:38;;;;;;;7.68;2.97;;;12.00;99.90;;;;;;5053178;28;20051;-71
2022/07/22 08:44:07;;;;;;;8.35;2.35;;;12.00;99.90;;;;;;5052954;28;20118;-69
2022/07/22 08:46:35;;;;;;;7.82;2.72;;;12.00;99.90;;;;;;5052837;28;20028;-69
2022/07/22 08:49:06;;;;;;;7.63;3.10;;;12.00;99.90;;;;;;5052747;28;20058;-69
2022/07/22 08:51:33;;;;;;;11.23;3.20;;;12.00;99.90;;;;;;5053976;28;20155;-69
2022/07/22 08:54:01;;;;;;;9.95;3.60;;;12.10;99.90;;;;;;5056534;28;20036;-71
2022/07/22 08:56:28;;;;;;;13.90;3.47;;;12.10;99.90;;;;;;5056684;28;20024;-72
2022/07/22 08:58:55;;;;;;;9.60;3.40;;;12.00;99.90;;;;;;5056716;28;20466;-69
2022/07/22 09:01:22;;;;;;;9.25;4.40;;;12.00;99.90;;;;;;5056966;28;20130;-70
2022/07/22 09:03:56;;;;;;;11.95;5.15;;;12.00;99.90;;;;;;5056456;28;20401;-70
2022/07/22 09:06:33;;;;;;;7.43;3.10;;;12.00;99.90;;;;;;5056864;28;20036;-70
2022/07/22 09:09:26;;;;;;;10.40;2.92;;;12.00;99.90;;;;;;5056488;28;20040;-70
2022/07/22 09:12:05;;;;;;;7.82;3.10;;;12.00;99.90;;;;;;5056227;28;20037;-69
2022/07/22 09:14:46;;;;;;;5.72;3.10;;;12.00;99.90;;;;;;5056410;28;20029;-69
2022/07/22 09:17:37;;;;;;;11.70;5.53;;;12.00;99.90;;;;;;5056280;28;20087;-69
2022/07/22 09:20:22;;;;;;;12.98;6.38;;;12.00;99.90;;;;;;5056251;28;20110;-70
2022/07/22 09:22:50;;;;;;;14.10;6.30;;;12.00;99.90;;;;;;5056275;28;20018;-69
2022/07/22 09:25:36;;;;;;;8.52;5.30;;;12.00;99.90;;;;;;5056282;28;20486;-69
2022/07/22 09:28:06;;;;;;;5.43;3.35;;;12.00;99.90;;;;;;5056052;28;20044;-69
2022/07/22 09:30:54;;;;;;;9.95;4.18;;;12.00;99.90;;;;;;5056214;28;20021;-71
2022/07/22 09:33:23;;;;;;;13.77;4.53;;;12.00;99.90;;;;;;5056094;28;20111;-69
2022/07/22 09:35:51;;;;;;;11.60;3.70;;;12.00;99.90;;;;;;5055862;28;20081;-69
2022/07/22 09:38:27;;;;;;;8.05;4.35;;;11.90;99.90;;;;;;5055968;28;20025;-69
2022/07/22 09:40:55;;;;;;;8.18;4.15;;;11.90;99.90;;;;;;5056019;28;20021;-71
2022/07/22 09:43:22;;;;;;;6.70;3.85;;;11.90;99.90;;;;;;5055938;28;20017;-71
2022/07/22 09:45:58;;;;;;;7.53;3.65;;;11.80;99.90;;;;;;5055996;28;20025;-70
2022/07/22 09:48:26;;;;;;;8.32;3.30;;;11.80;99.90;;;;;;5055616;28;20112;-70
2022/07/22 09:50:56;;;;;;;7.38;3.30;;;11.80;99.90;;;;;;5055697;28;20504;-72
2022/07/22 09:53:27;;;;;;;4.57;3.05;;;11.80;99.90;;;;;;5055722;28;20057;-70
2022/07/22 09:55:56;;;;;;;4.82;2.50;;;11.80;99.90;;;;;;5055871;28;20025;-70
2022/07/22 09:58:25;;;;;;;4.93;1.33;;;11.80;99.90;;;;;;5055728;28;20025;-70
2022/07/22 10:00:53;;;;;;;4.82;2.15;;;11.80;99.90;;;;;;5055467;28;20422;-72
2022/07/22 10:03:30;;;;;;;7.78;2.72;;;11.70;99.90;;;;;;5054878;28;20056;-70
2022/07/22 10:05:58;;;;;;;11.27;2.55;;;11.70;99.90;;;;;;5055534;28;20367;-70
2022/07/22 10:08:28;;;;;;;8.48;2.80;;;11.70;99.90;;;;;;5055252;28;20033;-70
2022/07/22 10:11:01;;;;;;;8.20;2.70;;;11.70;99.90;;;;;;5055599;28;20028;-70
2022/07/22 10:13:30;;;;;;;5.95;2.95;;;11.70;99.90;;;;;;5055293;28;20052;-69
2022/07/22 10:15:58;;;;;;;8.85;2.58;;;11.70;99.90;;;;;;5055378;28;20021;-70
2022/07/22 10:18:29;;;;;;;5.78;2.15;;;11.70;99.90;;;;;;5055348;28;20028;-70
2022/07/22 10:21:05;;;;;;;7.65;1.85;;;11.70;99.90;;;;;;5055298;28;20029;-70
2022/07/22 10:23:34;;;;;;;5.95;2.05;;;11.60;99.90;;;;;;5054006;28;20386;-70
2022/07/22 10:26:08;;;;;;;8.75;2.65;;;11.60;99.90;;;;;;5054996;28;20025;-70
2022/07/22 10:28:37;;;;;;;7.68;2.60;;;11.60;99.90;;;;;;5054858;28;20482;-70
2022/07/22 10:31:24;;;;;;;9.07;2.70;;;11.60;99.90;;;;;;5055139;28;20024;-70
2022/07/22 10:33:55;;;;;;;6.43;2.80;;;11.60;99.90;;;;;;5055326;28;20035;-70
2022/07/22 10:36:34;;;;;;;4.78;1.88;;;11.60;99.90;;;;;;5055134;28;20029;-72
2022/07/22 10:39:11;;;;;;;5.55;1.85;;;11.60;99.90;;;;;;5055054;28;20020;-70
2022/07/22 10:41:42;;;;;;;8.20;1.80;;;11.60;99.90;;;;;;5054875;28;20474;-70
2022/07/22 10:44:11;;;;;;;2.90;1.92;;;11.60;99.90;;;;;;5054960;28;20099;-69
2022/07/22 10:46:58;;;;;;;6.05;2.45;;;11.60;99.90;;;;;;5054779;28;20024;-69
2022/07/22 10:49:26;;;;;;;6.43;1.40;;;11.60;99.90;;;;;;5054651;28;20021;-70
2022/07/22 10:52:10;;;;;;;4.78;2.25;;;11.60;99.90;;;;;;5055130;28;20035;-67
2022/07/22 10:55:13;;;;;;;4.63;1.35;;;11.70;99.90;;;;;;5054435;28;20029;-69
2022/07/22 10:57:41;;;;;;;5.63;0.90;;;11.60;99.90;;;;;;5054476;28;20029;-70
2022/07/22 11:00:09;;;;;;;2.75;1.02;;;11.60;99.90;;;;;;5054351;28;20381;-70
2022/07/22 11:02:39;;;;;;;6.57;1.40;;;11.60;99.90;;;;;;5054087;28;20044;-69
2022/07/22 11:05:08;;;;;;;3.15;0.93;;;11.60;99.90;;;;;;5054436;28;20036;-70
2022/07/22 11:07:45;;;;;;;1.95;0.60;;;11.60;99.90;;;;;;5054133;28;20029;-69
2022/07/22 11:10:19;;;;;;;4.45;0.93;;;11.60;99.90;;;;;;5054341;28;20044;-71
2022/07/22 11:12:51;;;;;;;0.98;0.65;;;11.60;99.90;;;;;;5054055;28;20076;-70
2022/07/22 11:15:25;;;;;;;4.28;0.75;;;11.60;99.90;;;;;;5053533;28;20025;-69
2022/07/22 11:17:57;;;;;;;1.73;0.55;;;11.60;99.90;;;;;;5054066;28;20100;-69
2022/07/22 11:20:25;;;;;;;4.97;0.55;;;11.60;99.90;;;;;;5054133;28;20060;-71
2022/07/22 11:22:54;;;;;;;8.50;0.90;;;11.50;99.90;;;;;;5053993;28;20466;-69
2022/07/22 11:25:27;;;;;;;3.03;1.10;;;11.60;99.90;;;;;;5054124;28;20021;-70
2022/07/22 11:27:57;;;;;;;3.20;0.68;;;11.60;99.90;;;;;;5054042;28;20033;-69
2022/07/22 11:30:25;;;;;;;5.45;0.77;;;11.50;99.90;;;;;;5053798;28;20025;-69
2022/07/22 11:32:53;;;;;;;4.95;1.17;;;11.50;99.90;;;;;;5053772;28;20104;-70
2022/07/22 11:35:20;;;;;;;2.00;0.95;;;11.40;99.90;;;;;;5053622;28;20102;-69
2022/07/22 11:37:58;;;;;;;4.95;0.90;;;11.40;99.90;;;;;;5053836;28;20025;-70
2022/07/22 11:40:33;;;;;;;2.22;0.68;;;11.40;99.90;;;;;;5053913;28;20032;-69
2022/07/22 11:43:04;;;;;;;3.53;1.58;;;11.40;99.90;;;;;;5053532;28;20026;-69
2022/07/22 11:45:32;;;;;;;1.90;0.98;;;11.30;99.90;;;;;;5053680;28;20052;-69
2022/07/22 11:48:08;;;;;;;2.08;0.90;;;11.30;99.90;;;;;;5052217;28;20048;-70
2022/07/22 11:50:36;;;;;;;5.05;1.33;;;11.30;99.90;;;;;;5053766;28;20025;-69
2022/07/22 11:53:05;;;;;;;8.02;1.73;;;11.30;99.90;;;;;;5053548;28;20075;-70
2022/07/22 11:55:34;;;;;;;6.65;1.75;;;11.30;99.90;;;;;;5053521;28;20013;-70
2022/07/22 11:58:02;;;;;;;6.82;2.70;;;11.40;99.90;;;;;;5053474;28;20030;-69
2022/07/22 12:00:29;;;;;;;5.70;3.00;;;11.40;99.90;;;;;;5053592;28;20036;-70
2022/07/22 12:02:58;;;;;;;5.15;2.20;;;11.40;99.90;;;;;;5053208;28;20049;-69
2022/07/22 12:05:26;;;;;;;3.67;1.70;;;11.40;99.90;;;;;;5053458;28;20025;-70
2022/07/22 12:07:54;;;;;;;9.60;2.00;;;11.40;99.90;;;;;;5053390;28;20040;-70
2022/07/22 12:10:21;;;;;;;6.93;1.73;;;11.40;99.90;;;;;;5053248;28;20031;-70
2022/07/22 12:12:49;;;;;;;8.18;2.08;;;11.30;99.90;;;;;;5053173;28;20109;-71
2022/07/22 12:15:17;;;;;;;4.38;1.85;;;11.30;99.90;;;;;;5053303;28;20024;-70
2022/07/22 12:17:45;;;;;;;13.30;1.98;;;11.30;99.90;;;;;;5053321;28;20031;-71
2022/07/22 12:20:13;;;;;;;5.20;2.45;;;11.30;99.90;;;;;;5053144;28;20017;-70
2022/07/22 12:22:47;;;;;;;7.25;2.42;;;11.30;99.90;;;;;;5053165;28;20039;-70
2022/07/22 12:25:17;;;;;;;4.53;2.30;;;11.30;99.90;;;;;;5053524;28;20083;-69
2022/07/22 12:28:01;;;;;;;4.75;2.22;;;11.30;99.90;;;;;;5057145;28;20494;-70
2022/07/22 12:30:29;;;;;;;7.05;2.80;;;11.30;99.90;;;;;;5057204;28;20123;-69
2022/07/22 12:32:59;;;;;;;8.25;3.90;;;11.30;99.90;;;;;;5057148;28;20109;-69
2022/07/22 12:35:27;;;;;;;13.23;5.25;;;11.30;99.90;;;;;;5057178;28;20053;-70
2022/07/22 12:37:54;;;;;;;7.80;3.10;;;11.30;99.90;;;;;;5057204;28;20037;-70
2022/07/22 12:40:23;;;;;;;10.98;4.43;;;11.30;99.90;;;;;;5057151;28;20021;-70
2022/07/22 12:43:10;;;;;;;8.82;5.55;;;11.30;99.90;;;;;;5057247;28;20389;-70
2022/07/22 12:45:38;;;;;;;4.22;2.45;;;11.30;99.90;;;;;;5057106;28;20373;-69
2022/07/22 12:48:10;;;;;;;5.80;2.20;;;11.30;99.90;;;;;;5056739;28;20072;-70
2022/07/22 12:50:44;;;;;;;4.13;2.35;;;11.30;99.90;;;;;;5056837;28;20017;-69
2022/07/22 12:53:14;;;;;;;4.57;2.63;;;11.30;99.90;;;;;;5056737;28;20021;-70
2022/07/22 12:55:54;;;;;;;7.78;3.20;;;11.30;99.90;;;;;;5056999;28;20017;-70